createdAt,value
2022-10-22T00:01:47.037Z,1.93
2022-10-22T00:04:15.291Z,1.97
2022-10-22T00:06:45.034Z,2.10
2022-10-22T00:09:13.863Z,2.40
2022-10-22T00:11:43.019Z,2.13
2022-10-22T00:14:11.342Z,2.30
2022-10-22T00:16:39.517Z,2.37
2022-10-22T00:19:11.112Z,2.20
2022-10-22T00:21:39.659Z,1.97
2022-10-22T00:24:08.220Z,2.30
2022-10-22T00:26:36.603Z,2.33
2022-10-22T00:29:04.923Z,2.23
2022-10-22T00:31:33.154Z,2.80
2022-10-22T00:34:01.896Z,2.30
2022-10-22T00:36:31.509Z,2.90
2022-10-22T00:38:59.718Z,2.60
2022-10-22T00:41:27.877Z,2.50
2022-10-22T00:43:59.454Z,2.67
2022-10-22T00:46:27.874Z,2.40
2022-10-22T00:48:57.628Z,2.80
2022-10-22T00:51:30.549Z,2.47
2022-10-22T00:54:04.606Z,2.50
2022-10-22T00:56:33.948Z,2.93
2022-10-22T00:59:03.750Z,2.57
2022-10-22T01:01:33.479Z,3.07
2022-10-22T01:04:02.163Z,2.40
2022-10-22T01:06:34.795Z,2.70
2022-10-22T01:09:17.577Z,2.57
2022-10-22T01:11:55.954Z,2.40
2022-10-22T01:14:31.293Z,2.40
2022-10-22T01:17:07.122Z,2.90
2022-10-22T01:19:55.340Z,2.60
2022-10-22T01:22:32.221Z,2.47
2022-10-22T01:25:07.345Z,3.63
2022-10-22T01:27:54.591Z,2.70
2022-10-22T01:30:25.987Z,2.80
2022-10-22T01:33:01.130Z,2.40
2022-10-22T01:38:06.185Z,2.83
2022-10-22T01:40:36.582Z,2.70
2022-10-22T01:43:07.494Z,2.60
2022-10-22T01:45:41.838Z,2.70
2022-10-22T01:48:27.584Z,2.70
2022-10-22T01:51:16.763Z,2.50
2022-10-22T01:53:55.271Z,2.33
2022-10-22T01:56:46.950Z,2.23
2022-10-22T01:59:24.498Z,2.30
2022-10-22T02:02:01.032Z,2.70
2022-10-22T02:04:34.334Z,2.40
2022-10-22T02:07:08.277Z,2.63
2022-10-22T02:09:39.002Z,2.70
2022-10-22T02:12:09.289Z,2.70
2022-10-22T02:14:41.294Z,2.53
2022-10-22T02:17:15.418Z,2.90
2022-10-22T02:19:49.729Z,2.80
2022-10-22T02:22:18.163Z,2.83
2022-10-22T02:24:46.708Z,2.70
2022-10-22T02:27:26.028Z,2.97
2022-10-22T02:30:03.253Z,2.87
2022-10-22T02:32:41.876Z,2.43
2022-10-22T02:35:16.528Z,2.30
2022-10-22T02:37:45.491Z,2.60
2022-10-22T02:40:14.154Z,2.50
2022-10-22T02:42:43.629Z,2.77
2022-10-22T02:45:12.372Z,2.63
2022-10-22T02:47:42.722Z,2.60
2022-10-22T02:50:11.936Z,2.90
2022-10-22T02:52:40.536Z,3.20
2022-10-22T02:55:09.908Z,2.73
2022-10-22T02:57:38.482Z,3.00
2022-10-22T03:00:10.203Z,2.83
2022-10-22T03:02:38.606Z,3.10
2022-10-22T03:05:10.084Z,3.00
2022-10-22T03:07:39.086Z,2.80
2022-10-22T03:10:08.931Z,3.10
2022-10-22T03:12:37.125Z,3.00
2022-10-22T03:15:07.130Z,2.97
2022-10-22T03:17:35.445Z,3.20
2022-10-22T03:20:03.859Z,3.30
2022-10-22T03:22:35.961Z,3.50
2022-10-22T03:25:10.414Z,3.57
2022-10-22T03:27:40.610Z,3.40
2022-10-22T03:30:10.817Z,3.43
2022-10-22T03:32:39.057Z,3.73
2022-10-22T03:35:07.956Z,3.40
2022-10-22T03:37:38.511Z,3.57
2022-10-22T03:40:09.520Z,3.53
2022-10-22T03:42:37.792Z,3.40
2022-10-22T03:45:07.647Z,4.00
2022-10-22T03:47:36.857Z,3.77
2022-10-22T03:50:06.105Z,3.30
2022-10-22T03:52:39.350Z,3.53
2022-10-22T03:55:09.585Z,3.70
2022-10-22T03:57:38.012Z,3.47
2022-10-22T04:00:08.914Z,3.80
2022-10-22T04:02:37.205Z,3.47
2022-10-22T04:05:06.086Z,3.73
2022-10-22T04:07:34.431Z,3.67
2022-10-22T04:10:04.729Z,3.20
2022-10-22T04:12:32.992Z,3.67
2022-10-22T04:15:01.174Z,3.07
2022-10-22T04:17:35.650Z,3.00
2022-10-22T04:20:05.589Z,2.97
2022-10-22T04:22:35.812Z,3.27
2022-10-22T04:25:07.018Z,2.90
2022-10-22T04:27:35.901Z,3.20
2022-10-22T04:30:04.206Z,3.37
2022-10-22T04:32:32.414Z,3.30
2022-10-22T04:35:00.639Z,3.20
2022-10-22T04:37:28.987Z,3.27
2022-10-22T04:39:58.219Z,3.53
2022-10-22T04:42:28.142Z,3.30
2022-10-22T04:44:56.452Z,3.37
2022-10-22T04:47:24.830Z,3.10
2022-10-22T04:49:53.065Z,3.40
2022-10-22T04:52:21.398Z,3.40
2022-10-22T04:54:49.709Z,3.30
2022-10-22T04:57:18.031Z,3.10
2022-10-22T04:59:47.679Z,3.40
2022-10-22T05:02:15.944Z,3.40
2022-10-22T05:04:45.682Z,3.67
2022-10-22T05:07:13.939Z,3.20
2022-10-22T05:09:42.166Z,3.70
2022-10-22T05:12:10.671Z,3.23
2022-10-22T05:14:42.654Z,3.43
2022-10-22T05:17:14.387Z,3.17
2022-10-22T05:19:42.604Z,3.13
2022-10-22T05:22:10.845Z,3.10
2022-10-22T05:24:39.395Z,3.27
2022-10-22T05:27:07.620Z,3.37
2022-10-22T05:29:36.082Z,3.17
2022-10-22T05:32:04.348Z,3.27
2022-10-22T05:34:36.089Z,3.20
2022-10-22T05:37:04.364Z,3.30
2022-10-22T05:39:36.750Z,3.47
2022-10-22T05:42:05.521Z,3.20
2022-10-22T05:44:33.916Z,3.13
2022-10-22T05:47:02.203Z,3.13
2022-10-22T05:49:30.496Z,3.30
2022-10-22T05:52:00.095Z,3.67
2022-10-22T05:54:28.466Z,3.17
2022-10-22T05:56:56.747Z,3.03
2022-10-22T05:59:24.927Z,3.00
2022-10-22T06:01:53.174Z,3.10
2022-10-22T06:04:21.605Z,3.10
2022-10-22T06:06:52.912Z,2.80
2022-10-22T06:09:27.462Z,3.40
2022-10-22T06:11:56.973Z,3.13
2022-10-22T06:14:25.781Z,3.33
2022-10-22T06:16:54.635Z,3.43
2022-10-22T06:19:25.720Z,3.30
2022-10-22T06:21:54.290Z,3.10
2022-10-22T06:24:24.317Z,3.17
2022-10-22T06:26:53.092Z,3.40
2022-10-22T06:29:24.610Z,3.53
2022-10-22T06:31:53.081Z,3.10
2022-10-22T06:34:21.459Z,3.30
2022-10-22T06:36:51.650Z,3.10
2022-10-22T06:39:20.033Z,3.23
2022-10-22T06:41:52.668Z,3.13
2022-10-22T06:44:22.056Z,3.30
2022-10-22T06:46:53.020Z,3.20
2022-10-22T06:49:23.909Z,3.00
2022-10-22T06:51:53.044Z,2.70
2022-10-22T06:54:22.078Z,2.53
2022-10-22T06:56:52.960Z,2.80
2022-10-22T06:59:21.263Z,2.30
2022-10-22T07:01:49.670Z,2.40
2022-10-22T07:04:18.517Z,2.60
2022-10-22T07:06:46.731Z,2.43
2022-10-22T07:09:15.303Z,2.10
2022-10-22T07:11:46.164Z,2.30
2022-10-22T07:14:16.530Z,2.23
2022-10-22T07:16:45.708Z,2.40
2022-10-22T07:19:15.243Z,2.17
2022-10-22T07:21:43.928Z,2.50
2022-10-22T07:24:12.216Z,2.07
2022-10-22T07:26:42.564Z,2.27
2022-10-22T07:29:11.051Z,2.10
2022-10-22T07:31:40.977Z,2.20
2022-10-22T07:34:09.961Z,2.10
2022-10-22T07:36:38.306Z,2.03
2022-10-22T07:39:06.911Z,2.00
2022-10-22T07:41:35.381Z,1.93
2022-10-22T07:44:04.137Z,1.90
2022-10-22T07:46:32.597Z,1.93
2022-10-22T07:49:02.449Z,2.00
2022-10-22T07:51:30.827Z,1.90
2022-10-22T07:53:59.156Z,2.00
2022-10-22T07:56:27.559Z,1.87
2022-10-22T07:58:55.878Z,2.20
2022-10-22T08:01:24.318Z,2.10
2022-10-22T08:03:53.110Z,2.30
2022-10-22T08:06:23.041Z,2.17
2022-10-22T08:08:51.491Z,2.00
2022-10-22T08:11:20.066Z,1.93
2022-10-22T08:13:48.335Z,1.97
2022-10-22T08:16:16.737Z,2.20
2022-10-22T08:18:45.275Z,1.87
2022-10-22T08:21:13.846Z,2.00
2022-10-22T08:23:43.555Z,2.00
2022-10-22T08:26:12.377Z,2.50
2022-10-22T08:28:41.113Z,2.20
2022-10-22T08:31:10.425Z,2.27
2022-10-22T08:33:39.379Z,2.03
2022-10-22T08:36:08.959Z,2.22
2022-10-22T08:38:37.430Z,1.70
2022-10-22T08:41:13.321Z,1.98
2022-10-22T08:44:26.903Z,1.60
2022-10-22T08:47:21.383Z,1.60
2022-10-22T08:49:50.845Z,1.45
2022-10-22T08:52:21.108Z,1.50
2022-10-22T08:54:54.763Z,1.60
2022-10-22T08:57:46.534Z,1.58
2022-10-22T09:00:25.935Z,1.70
2022-10-22T09:03:11.491Z,1.23
2022-10-22T09:05:48.856Z,1.58
2022-10-22T09:08:20.365Z,1.50
2022-10-22T09:10:52.265Z,1.48
2022-10-22T09:13:24.119Z,1.48
2022-10-22T09:15:57.545Z,1.35
2022-10-22T09:18:37.220Z,1.37
2022-10-22T09:21:20.483Z,1.20
2022-10-22T09:24:01.527Z,1.73
2022-10-22T09:26:29.862Z,1.20
2022-10-22T09:29:02.281Z,1.30
2022-10-22T09:31:33.919Z,1.30
2022-10-22T09:34:07.378Z,1.48
2022-10-22T09:36:37.309Z,1.10
2022-10-22T09:39:05.738Z,1.20
2022-10-22T09:41:34.496Z,1.25
2022-10-22T09:44:08.369Z,1.20
2022-10-22T09:46:43.974Z,1.30
2022-10-22T09:49:16.178Z,1.20
2022-10-22T09:51:53.419Z,1.25
2022-10-22T09:54:24.558Z,1.00
2022-10-22T09:56:59.551Z,0.97
2022-10-22T09:59:35.686Z,1.27
2022-10-22T10:02:20.373Z,1.20
2022-10-22T10:04:58.462Z,1.08
2022-10-22T10:07:31.283Z,1.33
2022-10-22T10:10:00.045Z,1.00
2022-10-22T10:12:40.453Z,1.20
2022-10-22T10:15:22.293Z,1.00
2022-10-22T10:17:59.978Z,1.17
2022-10-22T10:20:40.930Z,1.15
2022-10-22T10:23:15.972Z,1.20
2022-10-22T10:25:57.961Z,1.30
2022-10-22T10:28:43.712Z,1.23
2022-10-22T10:31:38.169Z,1.20
2022-10-22T10:34:20.439Z,1.30
2022-10-22T10:37:01.531Z,1.50
2022-10-22T10:39:38.775Z,1.20
2022-10-22T10:42:17.852Z,1.20
2022-10-22T10:45:02.432Z,1.50
2022-10-22T10:47:57.987Z,1.13
2022-10-22T10:50:32.369Z,1.13
2022-10-22T10:53:11.552Z,1.33
2022-10-22T10:55:54.524Z,1.30
2022-10-22T10:58:33.123Z,1.50
2022-10-22T11:01:14.250Z,1.60
2022-10-22T11:03:58.209Z,1.40
2022-10-22T11:06:28.835Z,1.20
2022-10-22T11:09:03.707Z,1.33
2022-10-22T11:11:38.016Z,1.40
2022-10-22T11:14:14.512Z,1.63
2022-10-22T11:16:48.131Z,1.33
2022-10-22T11:19:39.603Z,1.30
2022-10-22T11:22:24.560Z,1.30
2022-10-22T11:25:00.727Z,1.30
2022-10-22T11:27:37.529Z,1.60
2022-10-22T11:30:15.655Z,1.30
2022-10-22T11:32:47.449Z,1.30
2022-10-22T11:35:25.916Z,1.55
2022-10-22T11:37:57.726Z,1.30
2022-10-22T11:40:37.260Z,1.30
2022-10-22T11:43:08.884Z,1.40
2022-10-22T11:45:43.979Z,1.50
2022-10-22T11:48:19.336Z,1.60
2022-10-22T11:50:54.966Z,1.50
2022-10-22T11:53:32.384Z,1.55
2022-10-22T11:56:23.562Z,1.40
2022-10-22T11:58:54.662Z,1.30
2022-10-22T12:01:31.524Z,1.60
2022-10-22T12:04:23.196Z,1.50
2022-10-22T12:07:00.474Z,1.52
2022-10-22T12:09:32.771Z,1.08
2022-10-22T12:12:16.402Z,1.30
2022-10-22T12:14:58.063Z,1.20
2022-10-22T12:17:28.872Z,1.10
2022-10-22T12:20:03.429Z,1.30
2022-10-22T12:22:37.163Z,0.95
2022-10-22T12:25:20.101Z,1.20
2022-10-22T12:27:57.226Z,1.25
2022-10-22T12:30:28.758Z,1.08
2022-10-22T12:33:00.289Z,1.02
2022-10-22T12:35:30.396Z,0.95
2022-10-22T12:38:03.595Z,1.10
2022-10-22T12:40:34.873Z,0.90
2022-10-22T12:43:11.735Z,0.93
2022-10-22T12:45:40.907Z,1.00
2022-10-22T12:48:17.474Z,1.00
2022-10-22T12:50:50.187Z,1.00
2022-10-22T12:53:25.357Z,0.90
2022-10-22T12:55:56.224Z,1.00
2022-10-22T12:58:30.201Z,0.90
2022-10-22T13:01:02.116Z,0.90
2022-10-22T13:03:34.931Z,1.05
2022-10-22T13:06:25.936Z,1.10
2022-10-22T13:09:08.111Z,0.80
2022-10-22T13:11:41.086Z,1.00
2022-10-22T13:14:28.082Z,0.95
2022-10-22T13:17:09.419Z,0.85
2022-10-22T13:19:41.759Z,1.00
2022-10-22T13:22:33.897Z,1.05
2022-10-22T13:25:23.946Z,0.90
2022-10-22T13:27:54.998Z,0.90
2022-10-22T13:30:27.472Z,0.68
2022-10-22T13:32:58.366Z,0.70
2022-10-22T13:35:32.101Z,0.80
2022-10-22T13:38:00.582Z,0.70
2022-10-22T13:40:30.352Z,0.85
2022-10-22T13:42:58.747Z,0.95
2022-10-22T13:45:26.961Z,0.90
2022-10-22T13:47:57.083Z,0.80
2022-10-22T13:50:25.477Z,0.50
2022-10-22T13:52:57.832Z,1.00
2022-10-22T13:55:30.064Z,0.60
2022-10-22T13:58:02.863Z,0.70
2022-10-22T14:00:31.258Z,0.65
2022-10-22T14:03:01.074Z,0.77
2022-10-22T14:05:30.527Z,0.30
2022-10-22T14:08:00.450Z,0.50
2022-10-22T14:10:30.401Z,0.40
2022-10-22T14:12:59.153Z,0.35
2022-10-22T14:15:30.003Z,0.60
2022-10-22T14:18:00.408Z,0.60
2022-10-22T14:20:32.321Z,0.40
2022-10-22T14:23:13.301Z,0.57
2022-10-22T14:25:43.026Z,0.77
2022-10-22T14:28:12.577Z,0.60
2022-10-22T14:30:42.090Z,0.70
2022-10-22T14:33:16.955Z,0.55
2022-10-22T14:35:45.342Z,0.68
2022-10-22T14:38:13.701Z,1.00
2022-10-22T14:40:43.901Z,0.80
2022-10-22T14:43:13.142Z,0.57
2022-10-22T14:45:41.403Z,0.90
2022-10-22T14:48:09.684Z,0.90
2022-10-22T14:50:38.060Z,0.70
2022-10-22T14:53:06.307Z,0.77
2022-10-22T14:55:34.489Z,0.50
2022-10-22T14:58:04.494Z,0.63
2022-10-22T15:00:34.423Z,0.63
2022-10-22T15:03:04.354Z,0.60
2022-10-22T15:05:32.718Z,0.50
2022-10-22T15:08:00.981Z,0.63
2022-10-22T15:10:29.366Z,0.90
2022-10-22T15:12:57.632Z,0.80
2022-10-22T15:15:31.649Z,0.70
2022-10-22T15:18:06.632Z,0.57
2022-10-22T15:20:34.933Z,0.60
2022-10-22T15:23:03.136Z,0.65
2022-10-22T15:25:31.967Z,0.70
2022-10-22T15:28:04.714Z,0.80
2022-10-22T15:30:38.753Z,0.50
2022-10-22T15:33:07.403Z,0.90
2022-10-22T15:35:35.683Z,0.63
2022-10-22T15:38:06.576Z,0.63
2022-10-22T15:40:34.912Z,0.75
2022-10-22T15:43:03.270Z,0.80
2022-10-22T15:45:31.584Z,0.80
2022-10-22T15:48:01.287Z,0.88
2022-10-22T15:50:29.783Z,0.70
2022-10-22T15:52:58.561Z,0.80
2022-10-22T15:55:26.801Z,0.52
2022-10-22T15:58:00.551Z,0.43
2022-10-22T16:00:31.678Z,0.50
2022-10-22T16:03:01.319Z,0.87
2022-10-22T16:05:29.795Z,0.77
2022-10-22T16:07:57.967Z,0.65
2022-10-22T16:10:28.059Z,0.70
2022-10-22T16:12:57.959Z,0.60
2022-10-22T16:15:26.233Z,0.50
2022-10-22T16:17:54.597Z,0.83
2022-10-22T16:20:24.355Z,1.07
2022-10-22T16:22:52.719Z,0.80
2022-10-22T16:25:21.323Z,0.70
2022-10-22T16:27:51.676Z,0.60
2022-10-22T16:30:19.931Z,0.70
2022-10-22T16:32:48.231Z,0.67
2022-10-22T16:35:16.642Z,0.70
2022-10-22T16:37:46.726Z,0.67
2022-10-22T16:40:14.997Z,0.60
2022-10-22T16:42:44.095Z,0.97
2022-10-22T16:45:13.018Z,0.80
2022-10-22T16:47:43.048Z,0.80
2022-10-22T16:50:11.802Z,0.77
2022-10-22T16:52:39.978Z,0.70
2022-10-22T16:55:10.749Z,0.70
2022-10-22T16:57:39.175Z,0.80
2022-10-22T17:00:09.600Z,0.67
2022-10-22T17:02:38.321Z,0.80
2022-10-22T17:05:08.050Z,0.70
2022-10-22T17:07:36.278Z,0.80
2022-10-22T17:10:05.270Z,0.60
2022-10-22T17:12:35.489Z,1.00
2022-10-22T17:15:05.008Z,1.40
2022-10-22T17:17:33.278Z,1.70
2022-10-22T17:20:01.597Z,0.97
2022-10-22T17:22:29.815Z,0.90
2022-10-22T17:25:12.637Z,1.13
2022-10-22T17:27:43.448Z,0.77
2022-10-22T17:30:16.461Z,0.93
2022-10-22T17:32:44.902Z,0.80
2022-10-22T17:35:15.585Z,1.10
2022-10-22T17:37:44.696Z,1.50
2022-10-22T17:40:15.437Z,1.57
2022-10-22T17:42:45.740Z,1.30
2022-10-22T17:45:13.915Z,1.20
2022-10-22T17:47:42.238Z,1.30
2022-10-22T17:50:11.775Z,1.60
2022-10-22T17:52:40.536Z,1.80
2022-10-22T17:55:13.609Z,1.60
2022-10-22T17:57:41.787Z,1.67
2022-10-22T18:00:16.119Z,1.37
2022-10-22T18:02:44.620Z,1.40
2022-10-22T18:05:13.763Z,1.47
2022-10-22T18:07:42.127Z,1.33
2022-10-22T18:10:11.218Z,1.30
2022-10-22T18:12:39.892Z,1.60
2022-10-22T18:15:09.575Z,1.50
2022-10-22T18:17:40.170Z,1.47
2022-10-22T18:20:10.255Z,1.70
2022-10-22T18:22:41.286Z,1.60
2022-10-22T18:25:10.955Z,1.60
2022-10-22T18:27:40.162Z,1.60
2022-10-22T18:30:10.309Z,2.10
2022-10-22T18:32:39.944Z,2.27
2022-10-22T18:35:10.907Z,2.63
2022-10-22T18:37:42.633Z,2.97
2022-10-22T18:40:14.796Z,3.30
2022-10-22T18:42:43.502Z,3.07
2022-10-22T18:45:12.837Z,2.40
2022-10-22T18:47:43.490Z,2.50
2022-10-22T18:50:11.852Z,2.30
2022-10-22T18:52:40.805Z,2.20
2022-10-22T18:55:10.298Z,2.47
2022-10-22T18:57:38.902Z,2.10
2022-10-22T19:00:09.434Z,1.97
2022-10-22T19:02:41.745Z,1.70
2022-10-22T19:05:11.742Z,1.80
2022-10-22T19:07:40.873Z,1.50
2022-10-22T19:10:10.588Z,1.60
2022-10-22T19:12:38.824Z,1.60
2022-10-22T19:15:08.598Z,2.10
2022-10-22T19:17:37.069Z,1.70
2022-10-22T19:20:06.680Z,1.50
2022-10-22T19:22:36.247Z,1.63
2022-10-22T19:25:11.900Z,1.60
2022-10-22T19:27:41.246Z,1.70
2022-10-22T19:30:11.208Z,1.50
2022-10-22T19:32:40.197Z,1.53
2022-10-22T19:35:09.695Z,1.53
2022-10-22T19:37:39.896Z,1.97
2022-10-22T19:40:10.897Z,1.77
2022-10-22T19:42:39.828Z,1.80
2022-10-22T19:45:10.204Z,1.90
2022-10-22T19:47:38.419Z,1.93
2022-10-22T19:50:07.726Z,2.00
2022-10-22T19:52:35.998Z,2.00
2022-10-22T19:55:06.844Z,2.07
2022-10-22T19:57:35.057Z,2.20
2022-10-22T20:00:03.356Z,2.00
2022-10-22T20:02:31.707Z,2.37
2022-10-22T20:05:00.944Z,2.60
2022-10-22T20:07:30.425Z,2.20
2022-10-22T20:09:58.620Z,2.07
2022-10-22T20:12:30.480Z,2.07
2022-10-22T20:14:58.726Z,2.10
2022-10-22T20:17:27.465Z,2.27
2022-10-22T20:19:56.745Z,2.10
2022-10-22T20:22:25.027Z,1.90
2022-10-22T20:24:53.229Z,2.20
2022-10-22T20:27:21.578Z,2.10
2022-10-22T20:29:51.263Z,2.13
2022-10-22T20:32:19.610Z,2.07
2022-10-22T20:34:47.870Z,2.53
2022-10-22T20:37:16.179Z,2.60
2022-10-22T20:39:44.448Z,2.53
2022-10-22T20:42:12.697Z,2.50
2022-10-22T20:44:40.893Z,2.53
2022-10-22T20:47:10.567Z,2.30
2022-10-22T20:49:38.781Z,2.50
2022-10-22T20:52:07.149Z,2.33
2022-10-22T20:54:38.560Z,2.50
2022-10-22T20:57:06.753Z,2.60
2022-10-22T20:59:35.573Z,2.53
2022-10-22T21:02:04.042Z,2.57
2022-10-22T21:04:35.153Z,2.57
2022-10-22T21:07:03.445Z,2.90
2022-10-22T21:09:31.707Z,2.50
2022-10-22T21:12:03.257Z,2.70
2022-10-22T21:14:31.550Z,2.50
2022-10-22T21:17:00.726Z,2.60
2022-10-22T21:19:29.034Z,2.50
2022-10-22T21:21:58.623Z,2.70
2022-10-22T21:24:27.455Z,2.70
2022-10-22T21:26:55.806Z,2.70
2022-10-22T21:29:24.198Z,2.50
2022-10-22T21:31:53.607Z,2.43
2022-10-22T21:34:21.846Z,2.20
2022-10-22T21:36:50.092Z,2.50
2022-10-22T21:39:19.771Z,2.40
2022-10-22T21:41:48.047Z,2.70
2022-10-22T21:44:16.891Z,2.37
2022-10-22T21:46:45.229Z,2.80
2022-10-22T21:49:14.370Z,3.20
2022-10-22T21:51:44.664Z,3.50
2022-10-22T21:54:13.621Z,4.03
2022-10-22T21:56:43.266Z,4.93
2022-10-22T21:59:11.488Z,5.30
2022-10-22T22:01:39.843Z,4.93
2022-10-22T22:04:08.325Z,4.23
2022-10-22T22:06:36.659Z,4.40
2022-10-22T22:09:06.312Z,4.07
2022-10-22T22:11:34.706Z,4.10
2022-10-22T22:14:04.395Z,4.67
2022-10-22T22:16:35.361Z,5.00
2022-10-22T22:19:06.972Z,5.00
2022-10-22T22:21:35.851Z,4.97
2022-10-22T22:24:04.165Z,4.67
2022-10-22T22:26:32.491Z,5.23
2022-10-22T22:29:01.260Z,4.90
2022-10-22T22:31:33.022Z,4.50
2022-10-22T22:34:02.653Z,3.83
2022-10-22T22:36:35.808Z,4.17
2022-10-22T22:39:05.519Z,4.90
2022-10-22T22:41:34.422Z,4.37
2022-10-22T22:44:02.766Z,5.07
2022-10-22T22:46:32.615Z,4.80
2022-10-22T22:49:01.244Z,5.20
2022-10-22T22:51:29.466Z,4.70
2022-10-22T22:53:59.040Z,4.30
2022-10-22T22:56:29.210Z,4.47
2022-10-22T22:58:58.149Z,4.47
2022-10-22T23:01:29.347Z,4.30
2022-10-22T23:04:01.812Z,4.17
2022-10-22T23:06:32.659Z,3.97
2022-10-22T23:09:01.234Z,3.97
2022-10-22T23:11:30.652Z,4.30
2022-10-22T23:14:01.066Z,4.80
2022-10-22T23:16:32.751Z,4.90
2022-10-22T23:19:03.526Z,4.40
2022-10-22T23:21:35.935Z,4.03
2022-10-22T23:24:08.844Z,4.30
2022-10-22T23:26:41.122Z,3.53
2022-10-22T23:29:12.373Z,3.97
2022-10-22T23:31:40.855Z,3.33
2022-10-22T23:34:13.350Z,3.63
2022-10-22T23:36:42.250Z,3.97
2022-10-22T23:39:14.790Z,3.80
2022-10-22T23:41:43.069Z,4.00
2022-10-22T23:44:12.397Z,3.70
2022-10-22T23:46:41.142Z,3.27
2022-10-22T23:49:11.781Z,3.97
2022-10-22T23:51:40.697Z,3.70
2022-10-22T23:54:12.549Z,3.63
2022-10-22T23:56:40.779Z,3.37
2022-10-22T23:59:09.996Z,3.40
